sensor_id;sensor_type;location;lat;lon;timestamp;temperature;humidity
15690;DHT22;7945;48.816;11.506;2024-03-17T00:00:25;8.80;99.90
15690;DHT22;7945;48.816;11.506;2024-03-17T00:02:51;8.70;99.90
15690;DHT22;7945;48.816;11.506;2024-03-17T00:05:17;8.70;99.90
15690;DHT22;7945;48.816;11.506;2024-03-17T00:07:46;8.70;99.90
15690;DHT22;7945;48.816;11.506;2024-03-17T00:10:12;8.70;99.90
15690;DHT22;7945;48.816;11.506;2024-03-17T00:12:38;8.60;99.90
15690;DHT22;7945;48.816;11.506;2024-03-17T00:15:05;8.60;99.90
15690;DHT22;7945;48.816;11.506;2024-03-17T00:17:33;8.60;99.90
15690;DHT22;7945;48.816;11.506;2024-03-17T00:19:59;8.60;99.90
15690;DHT22;7945;48.816;11.506;2024-03-17T00:22:34;8.50;99.90
15690;DHT22;7945;48.816;11.506;2024-03-17T00:25:04;8.50;99.90
15690;DHT22;7945;48.816;11.506;2024-03-17T00:27:31;8.50;99.90
15690;DHT22;7945;48.816;11.506;2024-03-17T00:29:57;8.50;99.90
15690;DHT22;7945;48.816;11.506;2024-03-17T00:32:24;8.40;99.90
15690;DHT22;7945;48.816;11.506;2024-03-17T00:34:50;8.40;99.90
15690;DHT22;7945;48.816;11.506;2024-03-17T00:37:16;8.90;99.90
15690;DHT22;7945;48.816;11.506;2024-03-17T00:39:43;8.40;99.90
15690;DHT22;7945;48.816;11.506;2024-03-17T00:42:11;8.40;99.90
15690;DHT22;7945;48.816;11.506;2024-03-17T00:44:37;8.40;99.90
15690;DHT22;7945;48.816;11.506;2024-03-17T00:47:04;8.50;99.90
15690;DHT22;7945;48.816;11.506;2024-03-17T00:49:30;8.50;99.90
15690;DHT22;7945;48.816;11.506;2024-03-17T00:51:57;8.50;99.90
15690;DHT22;7945;48.816;11.506;2024-03-17T00:54:22;8.60;99.90
15690;DHT22;7945;48.816;11.506;2024-03-17T00:56:49;8.50;99.90
15690;DHT22;7945;48.816;11.506;2024-03-17T00:59:16;8.60;99.90
15690;DHT22;7945;48.816;11.506;2024-03-17T01:01:43;8.50;99.90
15690;DHT22;7945;48.816;11.506;2024-03-17T01:04:09;8.50;99.90
15690;DHT22;7945;48.816;11.506;2024-03-17T01:06:36;8.60;99.90
15690;DHT22;7945;48.816;11.506;2024-03-17T01:09:03;8.60;99.90
15690;DHT22;7945;48.816;11.506;2024-03-17T01:11:30;8.60;99.90
15690;DHT22;7945;48.816;11.506;2024-03-17T01:13:56;8.60;99.90
15690;DHT22;7945;48.816;11.506;2024-03-17T01:16:24;8.60;99.90
15690;DHT22;7945;48.816;11.506;2024-03-17T01:18:50;8.60;99.90
15690;DHT22;7945;48.816;11.506;2024-03-17T01:21:16;8.60;99.90
15690;DHT22;7945;48.816;11.506;2024-03-17T01:23:42;8.50;99.90
15690;DHT22;7945;48.816;11.506;2024-03-17T01:26:09;8.60;99.90
15690;DHT22;7945;48.816;11.506;2024-03-17T01:28:35;8.50;99.90
15690;DHT22;7945;48.816;11.506;2024-03-17T01:31:05;8.50;99.90
15690;DHT22;7945;48.816;11.506;2024-03-17T01:33:33;8.50;99.90
15690;DHT22;7945;48.816;11.506;2024-03-17T01:36:00;8.50;99.90
15690;DHT22;7945;48.816;11.506;2024-03-17T01:38:25;8.40;99.90
15690;DHT22;7945;48.816;11.506;2024-03-17T01:40:52;8.40;99.90
15690;DHT22;7945;48.816;11.506;2024-03-17T01:43:18;8.40;99.90
15690;DHT22;7945;48.816;11.506;2024-03-17T01:45:45;8.30;99.90
15690;DHT22;7945;48.816;11.506;2024-03-17T01:48:14;8.30;99.90
15690;DHT22;7945;48.816;11.506;2024-03-17T01:50:44;8.20;99.90
15690;DHT22;7945;48.816;11.506;2024-03-17T01:53:12;8.20;99.90
15690;DHT22;7945;48.816;11.506;2024-03-17T01:55:43;8.10;99.90
15690;DHT22;7945;48.816;11.506;2024-03-17T01:58:10;8.10;99.90
15690;DHT22;7945;48.816;11.506;2024-03-17T02:00:37;8.10;99.90
15690;DHT22;7945;48.816;11.506;2024-03-17T02:03:04;8.00;99.90
15690;DHT22;7945;48.816;11.506;2024-03-17T02:05:31;8.00;99.90
15690;DHT22;7945;48.816;11.506;2024-03-17T02:07:58;8.00;99.90
15690;DHT22;7945;48.816;11.506;2024-03-17T02:10:26;7.90;99.90
15690;DHT22;7945;48.816;11.506;2024-03-17T02:12:52;7.80;99.90
15690;DHT22;7945;48.816;11.506;2024-03-17T02:15:19;7.80;99.90
15690;DHT22;7945;48.816;11.506;2024-03-17T02:17:45;7.70;99.90
15690;DHT22;7945;48.816;11.506;2024-03-17T02:20:12;7.70;99.90
15690;DHT22;7945;48.816;11.506;2024-03-17T02:22:40;7.70;99.90
15690;DHT22;7945;48.816;11.506;2024-03-17T02:25:07;7.70;99.90
15690;DHT22;7945;48.816;11.506;2024-03-17T02:27:33;7.60;99.90
15690;DHT22;7945;48.816;11.506;2024-03-17T02:30:00;7.60;99.90
15690;DHT22;7945;48.816;11.506;2024-03-17T02:32:26;7.60;99.90
15690;DHT22;7945;48.816;11.506;2024-03-17T02:34:53;7.50;99.90
15690;DHT22;7945;48.816;11.506;2024-03-17T02:37:19;7.40;99.90
15690;DHT22;7945;48.816;11.506;2024-03-17T02:39:47;7.40;99.90
15690;DHT22;7945;48.816;11.506;2024-03-17T02:42:13;7.30;99.90
15690;DHT22;7945;48.816;11.506;2024-03-17T02:44:39;7.30;99.90
15690;DHT22;7945;48.816;11.506;2024-03-17T02:47:07;7.30;99.90
15690;DHT22;7945;48.816;11.506;2024-03-17T02:49:35;7.20;99.90
15690;DHT22;7945;48.816;11.506;2024-03-17T02:52:06;7.30;99.90
15690;DHT22;7945;48.816;11.506;2024-03-17T02:54:33;7.20;99.90
15690;DHT22;7945;48.816;11.506;2024-03-17T02:57:02;7.20;99.90
15690;DHT22;7945;48.816;11.506;2024-03-17T02:59:29;7.10;99.90
15690;DHT22;7945;48.816;11.506;2024-03-17T03:01:56;7.10;99.90
15690;DHT22;7945;48.816;11.506;2024-03-17T03:04:23;7.10;99.90
15690;DHT22;7945;48.816;11.506;2024-03-17T03:06:50;7.10;99.90
15690;DHT22;7945;48.816;11.506;2024-03-17T03:09:17;7.10;99.90
15690;DHT22;7945;48.816;11.506;2024-03-17T03:11:51;7.10;99.90
15690;DHT22;7945;48.816;11.506;2024-03-17T03:14:19;7.10;99.90
15690;DHT22;7945;48.816;11.506;2024-03-17T03:16:47;7.10;99.90
15690;DHT22;7945;48.816;11.506;2024-03-17T03:19:14;7.10;99.90
15690;DHT22;7945;48.816;11.506;2024-03-17T03:21:41;7.10;99.90
15690;DHT22;7945;48.816;11.506;2024-03-17T03:24:08;7.10;99.90
15690;DHT22;7945;48.816;11.506;2024-03-17T03:26:35;7.10;99.90
15690;DHT22;7945;48.816;11.506;2024-03-17T03:29:01;7.10;99.90
15690;DHT22;7945;48.816;11.506;2024-03-17T03:31:31;7.00;99.90
15690;DHT22;7945;48.816;11.506;2024-03-17T03:33:57;7.10;99.90
15690;DHT22;7945;48.816;11.506;2024-03-17T03:36:27;7.10;99.90
15690;DHT22;7945;48.816;11.506;2024-03-17T03:38:54;7.10;99.90
15690;DHT22;7945;48.816;11.506;2024-03-17T03:41:23;7.20;99.90
15690;DHT22;7945;48.816;11.506;2024-03-17T03:43:50;7.20;99.90
15690;DHT22;7945;48.816;11.506;2024-03-17T03:46:17;7.20;99.90
15690;DHT22;7945;48.816;11.506;2024-03-17T03:48:45;7.20;99.90
15690;DHT22;7945;48.816;11.506;2024-03-17T03:51:12;7.20;99.90
15690;DHT22;7945;48.816;11.506;2024-03-17T03:53:39;7.20;99.90
15690;DHT22;7945;48.816;11.506;2024-03-17T03:56:08;7.20;99.90
15690;DHT22;7945;48.816;11.506;2024-03-17T03:58:36;7.30;99.90
15690;DHT22;7945;48.816;11.506;2024-03-17T04:01:04;7.30;99.90
15690;DHT22;7945;48.816;11.506;2024-03-17T04:03:31;7.40;99.90
15690;DHT22;7945;48.816;11.506;2024-03-17T04:06:03;7.40;99.90
15690;DHT22;7945;48.816;11.506;2024-03-17T04:08:30;7.40;99.90
15690;DHT22;7945;48.816;11.506;2024-03-17T04:10:57;7.30;99.90
15690;DHT22;7945;48.816;11.506;2024-03-17T04:13:24;7.30;99.90
15690;DHT22;7945;48.816;11.506;2024-03-17T04:15:51;7.30;99.90
15690;DHT22;7945;48.816;11.506;2024-03-17T04:18:22;7.30;99.90
15690;DHT22;7945;48.816;11.506;2024-03-17T04:20:50;7.30;99.90
15690;DHT22;7945;48.816;11.506;2024-03-17T04:23:18;7.30;99.90
15690;DHT22;7945;48.816;11.506;2024-03-17T04:25:45;7.40;99.90
15690;DHT22;7945;48.816;11.506;2024-03-17T04:28:12;7.40;99.90
15690;DHT22;7945;48.816;11.506;2024-03-17T04:30:39;7.40;99.90
15690;DHT22;7945;48.816;11.506;2024-03-17T04:33:06;7.30;99.90
15690;DHT22;7945;48.816;11.506;2024-03-17T04:35:35;7.30;99.90
15690;DHT22;7945;48.816;11.506;2024-03-17T04:38:02;7.30;99.90
15690;DHT22;7945;48.816;11.506;2024-03-17T04:40:31;7.30;99.90
15690;DHT22;7945;48.816;11.506;2024-03-17T04:42:57;7.40;99.90
15690;DHT22;7945;48.816;11.506;2024-03-17T04:45:24;7.40;99.90
15690;DHT22;7945;48.816;11.506;2024-03-17T04:47:51;7.50;99.90
15690;DHT22;7945;48.816;11.506;2024-03-17T04:50:18;7.50;99.90
15690;DHT22;7945;48.816;11.506;2024-03-17T04:52:46;7.50;99.90
15690;DHT22;7945;48.816;11.506;2024-03-17T04:55:14;7.50;99.90
15690;DHT22;7945;48.816;11.506;2024-03-17T04:57:43;7.50;99.90
15690;DHT22;7945;48.816;11.506;2024-03-17T05:00:11;7.50;99.90
15690;DHT22;7945;48.816;11.506;2024-03-17T05:02:39;7.40;99.90
15690;DHT22;7945;48.816;11.506;2024-03-17T05:05:06;7.40;99.90
15690;DHT22;7945;48.816;11.506;2024-03-17T05:07:33;7.40;99.90
15690;DHT22;7945;48.816;11.506;2024-03-17T05:10:00;7.50;99.90
15690;DHT22;7945;48.816;11.506;2024-03-17T05:12:27;7.50;99.90
15690;DHT22;7945;48.816;11.506;2024-03-17T05:14:55;7.50;99.90
15690;DHT22;7945;48.816;11.506;2024-03-17T05:17:22;7.60;99.90
15690;DHT22;7945;48.816;11.506;2024-03-17T05:19:48;7.50;99.90
15690;DHT22;7945;48.816;11.506;2024-03-17T05:22:15;7.50;99.90
15690;DHT22;7945;48.816;11.506;2024-03-17T05:24:42;7.50;99.90
15690;DHT22;7945;48.816;11.506;2024-03-17T05:27:09;7.60;99.90
15690;DHT22;7945;48.816;11.506;2024-03-17T05:29:36;7.50;99.90
15690;DHT22;7945;48.816;11.506;2024-03-17T05:32:05;7.50;99.90
15690;DHT22;7945;48.816;11.506;2024-03-17T05:34:32;7.50;99.90
15690;DHT22;7945;48.816;11.506;2024-03-17T05:36:59;7.50;99.90
15690;DHT22;7945;48.816;11.506;2024-03-17T05:39:27;7.40;99.90
15690;DHT22;7945;48.816;11.506;2024-03-17T05:41:54;7.40;99.90
15690;DHT22;7945;48.816;11.506;2024-03-17T05:44:20;7.40;99.90
15690;DHT22;7945;48.816;11.506;2024-03-17T05:46:47;7.30;99.90
15690;DHT22;7945;48.816;11.506;2024-03-17T05:49:15;7.30;99.90
15690;DHT22;7945;48.816;11.506;2024-03-17T05:51:42;7.30;99.90
15690;DHT22;7945;48.816;11.506;2024-03-17T05:54:09;7.40;99.90
15690;DHT22;7945;48.816;11.506;2024-03-17T05:56:37;7.50;99.90
15690;DHT22;7945;48.816;11.506;2024-03-17T05:59:04;7.60;99.90
15690;DHT22;7945;48.816;11.506;2024-03-17T06:01:31;7.60;99.90
15690;DHT22;7945;48.816;11.506;2024-03-17T06:03:58;7.70;99.90
15690;DHT22;7945;48.816;11.506;2024-03-17T06:06:27;7.70;99.90
15690;DHT22;7945;48.816;11.506;2024-03-17T06:08:53;7.70;99.90
15690;DHT22;7945;48.816;11.506;2024-03-17T06:11:20;7.70;99.90
15690;DHT22;7945;48.816;11.506;2024-03-17T06:16:18;7.70;99.90
15690;DHT22;7945;48.816;11.506;2024-03-17T06:18:45;7.70;99.90
15690;DHT22;7945;48.816;11.506;2024-03-17T06:21:16;7.60;99.90
15690;DHT22;7945;48.816;11.506;2024-03-17T06:23:43;7.60;99.90
15690;DHT22;7945;48.816;11.506;2024-03-17T06:26:12;7.70;99.90
15690;DHT22;7945;48.816;11.506;2024-03-17T06:28:39;7.80;99.90
15690;DHT22;7945;48.816;11.506;2024-03-17T06:31:06;8.00;99.90
15690;DHT22;7945;48.816;11.506;2024-03-17T06:33:37;8.30;99.90
15690;DHT22;7945;48.816;11.506;2024-03-17T06:36:04;8.70;99.90
15690;DHT22;7945;48.816;11.506;2024-03-17T06:38:31;9.00;99.90
15690;DHT22;7945;48.816;11.506;2024-03-17T06:40:58;9.20;99.90
15690;DHT22;7945;48.816;11.506;2024-03-17T06:43:24;9.30;99.90
15690;DHT22;7945;48.816;11.506;2024-03-17T06:45:55;9.20;99.90
15690;DHT22;7945;48.816;11.506;2024-03-17T06:48:22;9.20;99.90
15690;DHT22;7945;48.816;11.506;2024-03-17T06:50:51;9.10;99.90
15690;DHT22;7945;48.816;11.506;2024-03-17T06:53:20;9.00;99.90
15690;DHT22;7945;48.816;11.506;2024-03-17T06:55:52;9.10;99.90
15690;DHT22;7945;48.816;11.506;2024-03-17T06:58:20;9.20;99.90
15690;DHT22;7945;48.816;11.506;2024-03-17T07:00:52;9.30;99.90
15690;DHT22;7945;48.816;11.506;2024-03-17T07:03:19;9.30;99.90
15690;DHT22;7945;48.816;11.506;2024-03-17T07:05:52;9.30;99.90
15690;DHT22;7945;48.816;11.506;2024-03-17T07:08:19;9.20;99.90
15690;DHT22;7945;48.816;11.506;2024-03-17T07:10:55;9.30;99.90
15690;DHT22;7945;48.816;11.506;2024-03-17T07:13:21;9.20;99.90
15690;DHT22;7945;48.816;11.506;2024-03-17T07:15:48;9.20;99.90
15690;DHT22;7945;48.816;11.506;2024-03-17T07:18:15;9.20;99.90
15690;DHT22;7945;48.816;11.506;2024-03-17T07:20:40;9.20;99.90
15690;DHT22;7945;48.816;11.506;2024-03-17T07:23:09;9.20;99.90
15690;DHT22;7945;48.816;11.506;2024-03-17T07:25:36;9.30;99.90
15690;DHT22;7945;48.816;11.506;2024-03-17T07:28:03;9.20;99.90
15690;DHT22;7945;48.816;11.506;2024-03-17T07:30:30;9.20;99.90
15690;DHT22;7945;48.816;11.506;2024-03-17T07:32:57;9.20;99.90
15690;DHT22;7945;48.816;11.506;2024-03-17T07:35:23;9.20;99.90
15690;DHT22;7945;48.816;11.506;2024-03-17T07:37:50;9.20;99.90
15690;DHT22;7945;48.816;11.506;2024-03-17T07:40:18;9.20;99.90
15690;DHT22;7945;48.816;11.506;2024-03-17T07:42:45;9.20;99.90
15690;DHT22;7945;48.816;11.506;2024-03-17T07:45:12;9.20;99.90
15690;DHT22;7945;48.816;11.506;2024-03-17T07:47:38;9.20;99.90
15690;DHT22;7945;48.816;11.506;2024-03-17T07:50:06;9.30;99.90
15690;DHT22;7945;48.816;11.506;2024-03-17T07:52:33;9.30;99.90
15690;DHT22;7945;48.816;11.506;2024-03-17T07:55:00;9.30;99.90
15690;DHT22;7945;48.816;11.506;2024-03-17T07:57:29;9.30;99.90
15690;DHT22;7945;48.816;11.506;2024-03-17T07:59:55;9.30;99.90
15690;DHT22;7945;48.816;11.506;2024-03-17T08:02:23;9.30;99.90
15690;DHT22;7945;48.816;11.506;2024-03-17T08:04:50;9.30;99.90
15690;DHT22;7945;48.816;11.506;2024-03-17T08:07:16;9.40;99.90
15690;DHT22;7945;48.816;11.506;2024-03-17T08:09:43;9.50;99.90
15690;DHT22;7945;48.816;11.506;2024-03-17T08:12:10;9.50;99.90
15690;DHT22;7945;48.816;11.506;2024-03-17T08:14:38;9.50;99.90
15690;DHT22;7945;48.816;11.506;2024-03-17T08:17:04;9.60;99.90
15690;DHT22;7945;48.816;11.506;2024-03-17T08:19:31;9.60;99.90
15690;DHT22;7945;48.816;11.506;2024-03-17T08:21:58;9.60;99.90
15690;DHT22;7945;48.816;11.506;2024-03-17T08:24:25;9.60;99.90
15690;DHT22;7945;48.816;11.506;2024-03-17T08:26:52;9.60;99.90
15690;DHT22;7945;48.816;11.506;2024-03-17T08:29:19;9.60;99.90
15690;DHT22;7945;48.816;11.506;2024-03-17T08:31:47;9.60;99.90
15690;DHT22;7945;48.816;11.506;2024-03-17T08:34:15;9.60;99.90
15690;DHT22;7945;48.816;11.506;2024-03-17T08:36:41;9.70;99.90
15690;DHT22;7945;48.816;11.506;2024-03-17T08:39:08;9.80;99.90
15690;DHT22;7945;48.816;11.506;2024-03-17T08:41:36;9.80;99.90
15690;DHT22;7945;48.816;11.506;2024-03-17T08:44:03;9.90;99.90
15690;DHT22;7945;48.816;11.506;2024-03-17T08:46:31;9.90;99.90
15690;DHT22;7945;48.816;11.506;2024-03-17T08:49:00;9.90;99.90
15690;DHT22;7945;48.816;11.506;2024-03-17T08:51:26;9.90;99.90
15690;DHT22;7945;48.816;11.506;2024-03-17T08:53:53;9.90;99.90
15690;DHT22;7945;48.816;11.506;2024-03-17T08:56:20;9.80;99.90
15690;DHT22;7945;48.816;11.506;2024-03-17T08:58:48;9.80;99.90
15690;DHT22;7945;48.816;11.506;2024-03-17T09:01:16;9.80;99.90
15690;DHT22;7945;48.816;11.506;2024-03-17T09:03:42;9.90;99.90
15690;DHT22;7945;48.816;11.506;2024-03-17T09:06:16;9.90;99.90
15690;DHT22;7945;48.816;11.506;2024-03-17T09:08:44;10.00;99.90
15690;DHT22;7945;48.816;11.506;2024-03-17T09:11:13;10.00;99.90
15690;DHT22;7945;48.816;11.506;2024-03-17T09:13:40;10.10;99.90
15690;DHT22;7945;48.816;11.506;2024-03-17T09:16:06;10.20;99.90
15690;DHT22;7945;48.816;11.506;2024-03-17T09:18:36;10.30;99.90
15690;DHT22;7945;48.816;11.506;2024-03-17T09:21:05;10.40;99.90
15690;DHT22;7945;48.816;11.506;2024-03-17T09:23:34;10.50;99.90
15690;DHT22;7945;48.816;11.506;2024-03-17T09:26:03;10.60;99.90
15690;DHT22;7945;48.816;11.506;2024-03-17T09:28:31;10.70;99.90
15690;DHT22;7945;48.816;11.506;2024-03-17T09:30:57;10.70;99.90
15690;DHT22;7945;48.816;11.506;2024-03-17T09:33:26;10.70;99.90
15690;DHT22;7945;48.816;11.506;2024-03-17T09:35:53;10.90;99.90
15690;DHT22;7945;48.816;11.506;2024-03-17T09:38:20;11.10;99.90
15690;DHT22;7945;48.816;11.506;2024-03-17T09:40:49;11.20;99.90
15690;DHT22;7945;48.816;11.506;2024-03-17T09:43:18;11.30;99.90
15690;DHT22;7945;48.816;11.506;2024-03-17T09:45:45;11.40;99.90
15690;DHT22;7945;48.816;11.506;2024-03-17T09:48:14;11.50;99.90
15690;DHT22;7945;48.816;11.506;2024-03-17T09:50:45;11.50;99.90
15690;DHT22;7945;48.816;11.506;2024-03-17T09:53:16;11.50;99.90
15690;DHT22;7945;48.816;11.506;2024-03-17T09:55:43;11.60;99.90
15690;DHT22;7945;48.816;11.506;2024-03-17T09:58:15;11.70;99.90
15690;DHT22;7945;48.816;11.506;2024-03-17T10:00:42;12.00;99.90
15690;DHT22;7945;48.816;11.506;2024-03-17T10:03:09;12.20;99.90
15690;DHT22;7945;48.816;11.506;2024-03-17T10:05:36;12.40;99.90
15690;DHT22;7945;48.816;11.506;2024-03-17T10:08:03;12.40;99.90
15690;DHT22;7945;48.816;11.506;2024-03-17T10:10:30;12.40;99.90
15690;DHT22;7945;48.816;11.506;2024-03-17T10:12:57;12.50;99.90
15690;DHT22;7945;48.816;11.506;2024-03-17T10:15:25;12.50;99.90
15690;DHT22;7945;48.816;11.506;2024-03-17T10:17:51;12.60;99.90
15690;DHT22;7945;48.816;11.506;2024-03-17T10:20:19;12.60;99.90
15690;DHT22;7945;48.816;11.506;2024-03-17T10:23:00;12.70;99.90
15690;DHT22;7945;48.816;11.506;2024-03-17T10:25:27;12.90;99.90
15690;DHT22;7945;48.816;11.506;2024-03-17T10:27:54;13.00;99.90
15690;DHT22;7945;48.816;11.506;2024-03-17T10:30:22;13.10;99.80
15690;DHT22;7945;48.816;11.506;2024-03-17T10:32:56;13.20;99.50
15690;DHT22;7945;48.816;11.506;2024-03-17T10:35:27;13.50;99.10
15690;DHT22;7945;48.816;11.506;2024-03-17T10:37:55;13.60;98.60
15690;DHT22;7945;48.816;11.506;2024-03-17T10:40:24;13.70;98.40
15690;DHT22;7945;48.816;11.506;2024-03-17T10:42:51;13.90;98.30
15690;DHT22;7945;48.816;11.506;2024-03-17T10:45:18;13.90;98.00
15690;DHT22;7945;48.816;11.506;2024-03-17T10:47:47;13.80;98.00
15690;DHT22;7945;48.816;11.506;2024-03-17T10:50:18;13.90;98.20
15690;DHT22;7945;48.816;11.506;2024-03-17T10:52:47;13.80;98.10
15690;DHT22;7945;48.816;11.506;2024-03-17T10:55:21;13.90;98.30
15690;DHT22;7945;48.816;11.506;2024-03-17T10:57:49;14.00;98.10
15690;DHT22;7945;48.816;11.506;2024-03-17T11:00:18;14.20;97.50
15690;DHT22;7945;48.816;11.506;2024-03-17T11:02:47;14.10;98.10
15690;DHT22;7945;48.816;11.506;2024-03-17T11:05:19;14.00;98.10
15690;DHT22;7945;48.816;11.506;2024-03-17T11:07:48;14.00;98.40
15690;DHT22;7945;48.816;11.506;2024-03-17T11:10:16;13.90;97.70
15690;DHT22;7945;48.816;11.506;2024-03-17T11:12:46;13.80;97.60
15690;DHT22;7945;48.816;11.506;2024-03-17T11:15:36;13.30;98.00
15690;DHT22;7945;48.816;11.506;2024-03-17T11:18:36;13.90;97.80
15690;DHT22;7945;48.816;11.506;2024-03-17T11:21:07;13.90;97.60
15690;DHT22;7945;48.816;11.506;2024-03-17T11:23:36;14.10;97.30
15690;DHT22;7945;48.816;11.506;2024-03-17T11:26:05;14.10;96.90
15690;DHT22;7945;48.816;11.506;2024-03-17T11:28:46;14.10;97.50
15690;DHT22;7945;48.816;11.506;2024-03-17T11:31:32;14.30;97.30
15690;DHT22;7945;48.816;11.506;2024-03-17T11:33:59;14.30;97.10
15690;DHT22;7945;48.816;11.506;2024-03-17T11:36:37;14.30;96.60
15690;DHT22;7945;48.816;11.506;2024-03-17T11:39:06;14.40;96.40
15690;DHT22;7945;48.816;11.506;2024-03-17T11:41:37;14.50;96.40
15690;DHT22;7945;48.816;11.506;2024-03-17T11:44:24;14.60;95.90
15690;DHT22;7945;48.816;11.506;2024-03-17T11:46:53;14.70;96.10
15690;DHT22;7945;48.816;11.506;2024-03-17T11:49:22;14.80;95.30
15690;DHT22;7945;48.816;11.506;2024-03-17T11:51:50;14.80;95.40
15690;DHT22;7945;48.816;11.506;2024-03-17T11:54:19;14.80;95.90
15690;DHT22;7945;48.816;11.506;2024-03-17T11:56:47;15.10;95.80
15690;DHT22;7945;48.816;11.506;2024-03-17T11:59:14;15.00;95.70
15690;DHT22;7945;48.816;11.506;2024-03-17T12:01:43;15.10;95.40
15690;DHT22;7945;48.816;11.506;2024-03-17T12:04:10;15.20;95.70
15690;DHT22;7945;48.816;11.506;2024-03-17T12:06:37;15.20;95.00
15690;DHT22;7945;48.816;11.506;2024-03-17T12:09:18;15.10;95.10
15690;DHT22;7945;48.816;11.506;2024-03-17T12:11:46;15.10;95.30
15690;DHT22;7945;48.816;11.506;2024-03-17T12:14:15;15.20;95.80
15690;DHT22;7945;48.816;11.506;2024-03-17T12:16:48;15.20;95.00
15690;DHT22;7945;48.816;11.506;2024-03-17T12:19:15;15.20;94.90
15690;DHT22;7945;48.816;11.506;2024-03-17T12:21:43;15.20;95.50
15690;DHT22;7945;48.816;11.506;2024-03-17T12:24:16;15.30;95.10
15690;DHT22;7945;48.816;11.506;2024-03-17T12:26:42;15.20;94.70
15690;DHT22;7945;48.816;11.506;2024-03-17T12:29:26;15.20;95.10
15690;DHT22;7945;48.816;11.506;2024-03-17T12:31:54;15.20;94.90
15690;DHT22;7945;48.816;11.506;2024-03-17T12:34:22;15.10;95.20
15690;DHT22;7945;48.816;11.506;2024-03-17T12:36:48;15.10;95.20
15690;DHT22;7945;48.816;11.506;2024-03-17T12:39:19;15.00;95.40
15690;DHT22;7945;48.816;11.506;2024-03-17T12:41:45;14.90;95.30
15690;DHT22;7945;48.816;11.506;2024-03-17T12:44:22;14.80;95.20
15690;DHT22;7945;48.816;11.506;2024-03-17T12:46:48;14.80;95.40
15690;DHT22;7945;48.816;11.506;2024-03-17T12:49:15;14.80;95.70
15690;DHT22;7945;48.816;11.506;2024-03-17T12:51:41;14.90;95.30
15690;DHT22;7945;48.816;11.506;2024-03-17T12:54:14;14.90;95.40
15690;DHT22;7945;48.816;11.506;2024-03-17T12:56:41;14.90;94.90
15690;DHT22;7945;48.816;11.506;2024-03-17T12:59:25;14.90;95.50
15690;DHT22;7945;48.816;11.506;2024-03-17T13:02:20;14.90;95.40
15690;DHT22;7945;48.816;11.506;2024-03-17T13:05:05;15.00;94.90
15690;DHT22;7945;48.816;11.506;2024-03-17T13:07:32;15.00;95.00
15690;DHT22;7945;48.816;11.506;2024-03-17T13:09:59;15.00;95.00
15690;DHT22;7945;48.816;11.506;2024-03-17T13:12:28;15.10;94.90
15690;DHT22;7945;48.816;11.506;2024-03-17T13:14:54;15.10;94.70
15690;DHT22;7945;48.816;11.506;2024-03-17T13:17:21;15.20;94.90
15690;DHT22;7945;48.816;11.506;2024-03-17T13:19:49;15.20;94.70
15690;DHT22;7945;48.816;11.506;2024-03-17T13:22:16;15.20;95.10
15690;DHT22;7945;48.816;11.506;2024-03-17T13:24:42;15.20;94.90
15690;DHT22;7945;48.816;11.506;2024-03-17T13:27:09;15.20;94.90
15690;DHT22;7945;48.816;11.506;2024-03-17T13:29:37;15.30;95.00
15690;DHT22;7945;48.816;11.506;2024-03-17T13:32:04;15.40;94.60
15690;DHT22;7945;48.816;11.506;2024-03-17T13:34:32;15.40;94.10
15690;DHT22;7945;48.816;11.506;2024-03-17T13:36:58;15.40;94.50
15690;DHT22;7945;48.816;11.506;2024-03-17T13:39:29;15.30;94.60
15690;DHT22;7945;48.816;11.506;2024-03-17T13:41:57;15.30;94.50
15690;DHT22;7945;48.816;11.506;2024-03-17T13:44:28;15.20;94.90
15690;DHT22;7945;48.816;11.506;2024-03-17T13:46:56;15.20;94.60
15690;DHT22;7945;48.816;11.506;2024-03-17T13:49:23;15.10;94.70
15690;DHT22;7945;48.816;11.506;2024-03-17T13:51:50;15.00;94.00
15690;DHT22;7945;48.816;11.506;2024-03-17T13:54:17;15.00;94.80
15690;DHT22;7945;48.816;11.506;2024-03-17T13:56:46;14.90;94.70
15690;DHT22;7945;48.816;11.506;2024-03-17T13:59:13;15.00;94.40
15690;DHT22;7945;48.816;11.506;2024-03-17T14:01:40;15.00;95.00
15690;DHT22;7945;48.816;11.506;2024-03-17T14:04:13;15.00;95.00
15690;DHT22;7945;48.816;11.506;2024-03-17T14:06:41;14.90;94.30
15690;DHT22;7945;48.816;11.506;2024-03-17T14:09:07;15.00;94.50
15690;DHT22;7945;48.816;11.506;2024-03-17T14:11:35;15.00;94.50
15690;DHT22;7945;48.816;11.506;2024-03-17T14:14:02;15.00;94.80
15690;DHT22;7945;48.816;11.506;2024-03-17T14:16:30;15.00;94.90
15690;DHT22;7945;48.816;11.506;2024-03-17T14:18:58;15.00;94.60
15690;DHT22;7945;48.816;11.506;2024-03-17T14:21:26;14.90;94.60
15690;DHT22;7945;48.816;11.506;2024-03-17T14:23:53;14.80;95.10
15690;DHT22;7945;48.816;11.506;2024-03-17T14:26:20;14.80;94.70
15690;DHT22;7945;48.816;11.506;2024-03-17T14:28:47;14.90;94.80
15690;DHT22;7945;48.816;11.506;2024-03-17T14:31:15;14.90;94.70
15690;DHT22;7945;48.816;11.506;2024-03-17T14:33:42;14.90;94.80
15690;DHT22;7945;48.816;11.506;2024-03-17T14:36:09;15.00;94.80
15690;DHT22;7945;48.816;11.506;2024-03-17T14:38:37;14.90;94.40
15690;DHT22;7945;48.816;11.506;2024-03-17T14:41:04;15.50;95.10
15690;DHT22;7945;48.816;11.506;2024-03-17T14:43:31;14.80;95.10
15690;DHT22;7945;48.816;11.506;2024-03-17T14:46:00;14.70;94.70
15690;DHT22;7945;48.816;11.506;2024-03-17T14:48:27;14.70;94.70
15690;DHT22;7945;48.816;11.506;2024-03-17T14:50:54;14.70;94.80
15690;DHT22;7945;48.816;11.506;2024-03-17T14:53:20;14.70;94.90
15690;DHT22;7945;48.816;11.506;2024-03-17T14:55:48;14.60;94.90
15690;DHT22;7945;48.816;11.506;2024-03-17T14:58:15;14.60;95.00
15690;DHT22;7945;48.816;11.506;2024-03-17T15:00:42;14.60;94.90
15690;DHT22;7945;48.816;11.506;2024-03-17T15:03:09;14.60;94.90
15690;DHT22;7945;48.816;11.506;2024-03-17T15:05:35;14.60;95.10
15690;DHT22;7945;48.816;11.506;2024-03-17T15:08:02;14.70;95.40
15690;DHT22;7945;48.816;11.506;2024-03-17T15:10:29;14.60;95.20
15690;DHT22;7945;48.816;11.506;2024-03-17T15:12:57;14.50;95.10
15690;DHT22;7945;48.816;11.506;2024-03-17T15:15:24;14.50;95.20
15690;DHT22;7945;48.816;11.506;2024-03-17T15:17:51;14.50;95.20
15690;DHT22;7945;48.816;11.506;2024-03-17T15:20:18;14.50;95.60
15690;DHT22;7945;48.816;11.506;2024-03-17T15:22:47;14.50;95.20
15690;DHT22;7945;48.816;11.506;2024-03-17T15:25:16;14.50;95.30
15690;DHT22;7945;48.816;11.506;2024-03-17T15:27:43;14.50;95.40
15690;DHT22;7945;48.816;11.506;2024-03-17T15:30:13;14.40;95.50
15690;DHT22;7945;48.816;11.506;2024-03-17T15:32:41;14.40;95.40
15690;DHT22;7945;48.816;11.506;2024-03-17T15:35:10;14.40;95.20
15690;DHT22;7945;48.816;11.506;2024-03-17T15:37:38;14.40;95.30
15690;DHT22;7945;48.816;11.506;2024-03-17T15:40:06;14.40;95.40
15690;DHT22;7945;48.816;11.506;2024-03-17T15:42:32;14.40;95.20
15690;DHT22;7945;48.816;11.506;2024-03-17T15:44:59;14.30;95.30
15690;DHT22;7945;48.816;11.506;2024-03-17T15:47:27;14.30;95.40